createdAt,value
2023-05-22T00:00:46.087Z,82.6859
2023-05-22T00:08:00.567Z,82.4128
2023-05-22T00:11:05.458Z,83.2292
2023-05-22T00:12:08.201Z,83.6366
2023-05-22T00:13:11.427Z,83.6215
2023-05-22T00:15:11.824Z,83.9712
2023-05-22T00:16:14.520Z,83.9865
2023-05-22T00:17:17.392Z,84.1641
2023-05-22T00:18:20.072Z,83.8212
2023-05-22T00:19:23.707Z,85.2450
2023-05-22T00:20:24.448Z,85.9400
2023-05-22T00:21:27.170Z,86.2330
2023-05-22T00:28:39.804Z,90.2023
2023-05-22T00:29:40.826Z,90.5707
2023-05-22T00:30:41.802Z,90.8199
2023-05-22T00:32:43.498Z,90.7590
2023-05-22T00:33:46.206Z,91.0930
2023-05-22T00:34:53.742Z,91.7191
2023-05-22T00:42:04.786Z,92.8400
2023-05-22T00:43:05.200Z,93.1134
2023-05-22T00:45:07.709Z,93.5024
2023-05-22T00:46:11.206Z,93.7740
2023-05-22T00:48:11.149Z,93.3979
2023-05-22T00:49:13.892Z,93.0176
2023-05-22T00:50:16.640Z,92.9814
2023-05-22T00:51:20.491Z,92.4082
2023-05-22T00:52:20.623Z,91.8859
2023-05-22T00:53:22.758Z,91.4932
2023-05-22T00:54:25.516Z,91.4328
2023-05-22T00:55:28.930Z,91.0954
2023-05-22T00:56:36.175Z,90.6784
2023-05-22T00:57:30.108Z,90.4061
2023-05-22T00:58:39.684Z,90.0122
2023-05-22T01:04:03.495Z,88.3770
2023-05-22T01:04:48.272Z,88.2314
2023-05-22T01:08:53.457Z,87.9949
2023-05-22T01:09:53.281Z,87.9447
2023-05-22T01:10:57.082Z,87.8819
2023-05-22T01:11:59.856Z,87.4295
2023-05-22T01:13:02.799Z,87.6023
2023-05-22T01:15:05.287Z,86.8776
2023-05-22T01:16:08.113Z,87.9058
2023-05-22T01:18:14.408Z,87.1354
2023-05-22T01:30:39.492Z,90.4296
2023-05-22T01:31:41.329Z,89.9707
2023-05-22T01:32:41.596Z,89.5587
2023-05-22T01:47:11.972Z,92.7078
2023-05-22T01:48:15.620Z,92.5851
2023-05-22T01:55:28.451Z,92.3607
2023-05-22T01:56:29.033Z,91.9860
2023-05-22T01:57:29.046Z,92.6512
2023-05-22T01:58:31.870Z,92.7672
2023-05-22T01:59:31.901Z,93.0007
2023-05-22T02:00:34.673Z,93.7142
2023-05-22T02:01:37.515Z,93.8714
2023-05-22T02:02:37.653Z,93.8455
2023-05-22T02:03:38.507Z,93.8179
2023-05-22T02:06:44.389Z,92.8709
2023-05-22T02:07:44.838Z,93.9161
2023-05-22T02:08:45.123Z,94.2287
2023-05-22T02:10:50.632Z,95.3623
2023-05-22T02:11:50.681Z,95.5595
2023-05-22T02:12:51.267Z,95.2086
2023-05-22T02:14:54.047Z,93.6561
2023-05-22T02:15:54.737Z,94.6076
2023-05-22T02:16:55.477Z,94.0848
2023-05-22T02:18:58.081Z,93.7982
2023-05-22T02:20:00.933Z,92.6702
2023-05-22T02:21:03.708Z,91.5391
2023-05-22T02:22:07.888Z,91.6196
2023-05-22T02:29:18.585Z,93.2926
2023-05-22T02:30:19.107Z,94.1952
2023-05-22T02:31:20.468Z,94.4752
2023-05-22T02:32:21.251Z,92.6319
2023-05-22T02:33:21.843Z,90.8508
2023-05-22T02:36:24.839Z,92.0085
2023-05-22T02:37:25.633Z,91.5554
2023-05-22T02:38:28.588Z,93.0904
2023-05-22T02:39:32.081Z,93.1797
2023-05-22T02:40:32.121Z,93.4008
2023-05-22T02:47:42.958Z,92.0769
2023-05-22T02:48:43.945Z,91.6969
2023-05-22T02:50:47.307Z,92.2672
2023-05-22T02:51:47.382Z,92.8487
2023-05-22T02:52:48.078Z,90.7166
2023-05-22T02:53:48.973Z,90.3796
2023-05-22T02:54:49.085Z,91.3046
2023-05-22T02:55:52.593Z,91.9383
2023-05-22T02:56:53.186Z,91.0262
2023-05-22T03:07:11.669Z,91.6129
2023-05-22T03:09:12.070Z,93.2197
2023-05-22T03:10:14.895Z,92.7315
2023-05-22T03:11:17.744Z,92.8433
2023-05-22T03:12:21.298Z,93.8021
2023-05-22T03:13:21.367Z,94.6318
2023-05-22T03:14:24.179Z,95.3309
2023-05-22T03:15:27.109Z,95.0715
2023-05-22T03:16:28.177Z,95.9313
2023-05-22T03:17:28.845Z,95.9976
2023-05-22T03:26:38.425Z,93.4298
2023-05-22T03:27:39.790Z,93.1006
2023-05-22T03:28:40.060Z,93.2136
2023-05-22T03:29:41.137Z,94.6345
2023-05-22T03:38:58.041Z,95.5521
2023-05-22T03:39:58.105Z,95.0090
2023-05-22T03:40:59.438Z,94.9065
2023-05-22T03:42:01.997Z,95.1128
2023-05-22T03:43:02.104Z,95.1665
2023-05-22T03:45:04.476Z,96.1673
2023-05-22T03:46:05.050Z,96.5147
2023-05-22T03:47:05.672Z,96.2615
2023-05-22T03:48:05.785Z,96.3645
2023-05-22T03:49:08.599Z,96.7051
2023-05-22T03:50:10.585Z,97.0065
2023-05-22T03:51:30.342Z,97.0339
2023-05-22T03:57:24.609Z,95.8070
2023-05-22T03:58:27.544Z,94.8418
2023-05-22T03:59:31.030Z,93.9241
2023-05-22T04:00:32.999Z,93.7738
2023-05-22T04:01:32.874Z,93.3239
2023-05-22T04:02:36.368Z,92.6699
2023-05-22T04:03:37.000Z,92.7404
2023-05-22T04:06:42.788Z,93.0437
2023-05-22T04:10:51.954Z,95.8992
2023-05-22T04:12:55.041Z,96.3035
2023-05-22T04:13:55.585Z,96.4221
2023-05-22T04:24:12.235Z,92.7964
2023-05-22T04:25:13.340Z,92.9265
2023-05-22T04:31:28.695Z,91.5137
2023-05-22T04:46:58.645Z,93.9321
2023-05-22T04:48:01.467Z,94.2808
2023-05-22T04:49:04.912Z,94.4134
2023-05-22T04:50:05.348Z,94.8904
2023-05-22T04:58:22.021Z,93.3510
2023-05-22T05:01:27.203Z,92.7122
2023-05-22T05:02:30.064Z,93.4779
2023-05-22T05:03:33.398Z,92.6239
2023-05-22T05:09:41.838Z,88.6209
2023-05-22T05:10:44.654Z,85.9955
2023-05-22T05:11:47.434Z,85.3627
2023-05-22T05:12:50.201Z,82.8369
2023-05-22T05:13:52.975Z,80.7416
2023-05-22T05:14:55.703Z,80.1662
2023-05-22T05:15:59.120Z,78.4834
2023-05-22T05:17:01.085Z,76.3458
2023-05-22T05:18:01.733Z,75.3668
2023-05-22T05:19:02.430Z,76.3671
2023-05-22T05:21:06.353Z,76.2110
2023-05-22T05:22:07.793Z,76.7212
2023-05-22T05:23:07.833Z,75.0394
2023-05-22T05:25:11.828Z,72.9257
2023-05-22T05:26:12.378Z,73.4030
2023-05-22T05:29:20.690Z,73.6522
2023-05-22T05:30:20.933Z,75.4527
2023-05-22T05:32:23.750Z,74.9804
2023-05-22T05:33:23.752Z,73.0336
2023-05-22T05:37:32.227Z,69.2943
2023-05-22T05:38:32.309Z,69.0229
2023-05-22T05:39:35.126Z,65.4031
2023-05-22T05:41:38.116Z,65.0785
2023-05-22T05:42:39.326Z,65.6961
2023-05-22T05:43:42.187Z,66.1367
2023-05-22T05:44:42.195Z,65.1975
2023-05-22T05:45:42.282Z,66.9603
2023-05-22T05:46:45.146Z,71.0071
2023-05-22T05:49:51.781Z,65.2357
2023-05-22T05:57:03.487Z,62.6016
2023-05-22T05:58:04.395Z,64.4817
2023-05-22T06:04:11.158Z,69.0326
2023-05-22T06:05:11.268Z,68.4480
2023-05-22T06:06:14.057Z,67.9611
2023-05-22T06:07:16.839Z,66.6418
2023-05-22T06:08:16.964Z,67.0552
2023-05-22T06:15:28.557Z,66.1868
2023-05-22T06:16:29.209Z,64.3767
2023-05-22T06:18:32.210Z,62.2107
2023-05-22T06:19:33.064Z,61.6335
2023-05-22T06:20:33.049Z,63.6909
2023-05-22T06:22:39.315Z,62.1512
2023-05-22T06:23:39.829Z,61.8869
2023-05-22T06:27:49.408Z,66.6998
2023-05-22T06:32:58.197Z,64.1797
2023-05-22T06:39:11.726Z,67.9423
2023-05-22T06:40:36.753Z,66.3270
2023-05-22T06:41:16.758Z,67.6252
2023-05-22T06:44:22.711Z,65.2481
2023-05-22T06:48:29.056Z,67.6204
2023-05-22T06:49:29.124Z,68.1500
2023-05-22T06:51:32.518Z,65.4892
2023-05-22T06:52:33.366Z,64.8969
2023-05-22T06:58:42.388Z,65.7463
2023-05-22T06:59:42.440Z,67.2638
2023-05-22T07:00:45.225Z,65.3393
2023-05-22T07:01:48.082Z,65.0794
2023-05-22T07:02:49.491Z,65.7470
2023-05-22T07:03:49.994Z,66.4974
2023-05-22T07:06:53.904Z,64.9231
2023-05-22T07:24:36.629Z,66.0259
2023-05-22T07:53:46.369Z,64.8846
2023-05-22T08:08:23.121Z,60.8151
2023-05-22T08:09:25.935Z,60.1596
2023-05-22T08:10:37.250Z,61.5437
2023-05-22T08:28:14.199Z,60.2133
2023-05-22T08:38:40.859Z,58.0301
2023-05-22T08:39:43.576Z,56.5426
2023-05-22T08:40:46.652Z,57.0746
2023-05-22T08:41:46.551Z,57.6149
2023-05-22T08:46:59.844Z,55.3452
2023-05-22T08:54:15.532Z,54.3064
2023-05-22T09:05:39.869Z,55.5946
2023-05-22T09:06:39.911Z,56.6741
2023-05-22T09:07:42.739Z,56.4983
2023-05-22T09:13:55.862Z,54.7849
2023-05-22T09:14:58.596Z,52.1051
2023-05-22T09:16:01.296Z,53.8947
2023-05-22T09:17:04.131Z,56.0143
2023-05-22T09:28:30.034Z,54.8298
2023-05-22T09:29:32.816Z,53.9093
2023-05-22T09:30:35.579Z,53.0860
2023-05-22T09:31:38.403Z,53.9215
2023-05-22T09:37:51.434Z,52.0046
2023-05-22T09:44:04.368Z,49.4487
2023-05-22T09:45:07.135Z,50.0827
2023-05-22T09:46:09.955Z,52.2489
2023-05-22T09:53:25.205Z,51.7347
2023-05-22T09:56:39.199Z,52.9270
2023-05-22T09:57:35.837Z,53.2999
2023-05-22T09:58:38.558Z,52.8060
2023-05-22T09:59:41.310Z,51.5005
2023-05-22T10:00:44.055Z,50.8722
2023-05-22T10:01:46.857Z,48.4166
2023-05-22T10:23:37.525Z,46.3996
2023-05-22T10:24:40.226Z,46.6744
2023-05-22T10:25:42.926Z,47.3511
2023-05-22T10:26:45.668Z,49.6459
2023-05-22T10:32:58.503Z,47.8442
2023-05-22T10:36:03.521Z,50.8875
2023-05-22T10:49:34.582Z,49.0572
2023-05-22T11:06:15.960Z,45.5287
2023-05-22T11:07:18.659Z,47.4778
2023-05-22T11:08:21.405Z,47.4739
2023-05-22T11:40:35.053Z,46.8992
2023-05-22T11:48:49.767Z,44.2661
2023-05-22T11:49:52.407Z,41.5422
2023-05-22T11:50:52.152Z,41.8207
2023-05-22T11:51:54.805Z,41.4719
2023-05-22T11:57:04.682Z,45.6625
2023-05-22T12:46:50.883Z,40.7738
2023-05-22T12:49:53.066Z,43.4190
2023-05-22T13:21:02.675Z,40.7295
2023-05-22T13:45:53.966Z,43.1663
2023-05-22T14:05:33.439Z,36.5722
2023-05-22T14:06:34.805Z,37.3888
2023-05-22T14:07:35.097Z,36.2193
2023-05-22T14:08:35.493Z,35.0155
2023-05-22T14:09:36.010Z,36.0771
2023-05-22T14:10:36.363Z,39.4168
2023-05-22T14:11:37.668Z,44.1489
2023-05-22T14:23:45.288Z,37.3782
2023-05-22T14:25:48.383Z,37.2922
2023-05-22T14:30:54.454Z,41.9468
2023-05-22T14:52:44.491Z,35.5590
2023-05-22T14:53:47.082Z,35.3143
2023-05-22T14:58:57.028Z,35.1588
2023-05-22T15:00:59.259Z,34.6101
2023-05-22T15:19:41.417Z,38.0538
2023-05-22T15:24:45.660Z,42.3224
2023-05-22T15:32:00.549Z,42.9823
2023-05-22T15:46:33.807Z,43.7542
2023-05-22T15:49:38.949Z,44.5304
2023-05-22T16:32:15.362Z,36.4144
2023-05-22T16:34:17.862Z,36.9732
2023-05-22T17:26:05.316Z,38.4781
2023-05-22T17:44:36.498Z,47.7326
2023-05-22T18:00:03.646Z,52.9087
2023-05-22T18:12:31.627Z,55.6045
2023-05-22T18:21:41.109Z,57.8894
2023-05-22T18:22:42.158Z,57.2814
2023-05-22T18:23:42.093Z,60.9821
2023-05-22T18:25:55.860Z,61.7809
2023-05-22T18:27:47.903Z,59.7610
2023-05-22T18:28:48.391Z,58.4543
2023-05-22T18:32:57.147Z,64.6876
2023-05-22T18:37:00.150Z,63.3758
2023-05-22T18:39:03.376Z,64.6608
2023-05-22T18:40:03.992Z,63.3894
2023-05-22T18:41:04.815Z,62.3909
2023-05-22T18:42:05.388Z,61.5605
2023-05-22T18:43:05.533Z,64.8514
2023-05-22T18:44:05.903Z,65.7193
2023-05-22T18:45:06.968Z,67.5344
2023-05-22T18:46:08.043Z,67.5730
2023-05-22T18:47:09.025Z,68.3779
2023-05-22T18:49:10.275Z,67.4575
2023-05-22T18:50:10.388Z,65.6912
2023-05-22T18:51:10.949Z,66.8874
2023-05-22T18:52:12.226Z,67.0402
2023-05-22T18:53:12.315Z,63.7789
2023-05-22T18:54:12.777Z,65.4411
2023-05-22T19:02:17.970Z,69.2931
2023-05-22T19:03:18.956Z,69.4035
2023-05-22T19:04:19.723Z,67.0372
2023-05-22T19:05:19.832Z,65.6458
2023-05-22T19:06:19.770Z,65.9634
2023-05-22T19:07:19.832Z,65.4188
2023-05-22T19:08:20.254Z,69.0848
2023-05-22T19:09:20.609Z,71.5380
2023-05-22T19:10:20.757Z,72.6585
2023-05-22T19:11:20.900Z,70.6968
2023-05-22T19:12:20.909Z,68.1371
2023-05-22T19:13:21.212Z,69.3488
2023-05-22T19:14:21.653Z,69.3528
2023-05-22T19:15:21.611Z,68.3530
2023-05-22T19:32:54.890Z,78.4882
2023-05-22T19:33:55.113Z,76.9196
2023-05-22T19:37:59.876Z,75.6823
2023-05-22T19:40:00.411Z,77.0207
2023-05-22T19:41:00.966Z,77.7337
2023-05-22T19:42:01.394Z,80.2444
2023-05-22T19:43:02.071Z,80.2570
2023-05-22T19:44:02.686Z,78.7859
2023-05-22T19:45:03.277Z,78.1877
2023-05-22T19:46:05.410Z,78.8804
2023-05-22T19:47:04.736Z,80.7077
2023-05-22T19:48:06.491Z,80.9194
2023-05-22T19:49:06.990Z,81.4340
2023-05-22T19:50:08.396Z,81.1083
2023-05-22T19:51:08.970Z,81.4413
2023-05-22T19:52:09.106Z,79.9059
2023-05-22T19:53:09.904Z,79.6571
2023-05-22T19:54:10.578Z,79.3032
2023-05-22T19:55:10.960Z,79.3361
2023-05-22T19:56:12.585Z,78.7990
2023-05-22T19:57:13.227Z,80.6519
2023-05-22T19:58:13.797Z,81.4373
2023-05-22T19:59:14.022Z,82.4949
2023-05-22T20:00:14.999Z,82.7777
2023-05-22T20:01:14.993Z,81.8497
2023-05-22T20:02:15.151Z,80.8854
2023-05-22T20:03:15.367Z,81.6813
2023-05-22T20:04:15.365Z,79.4663
2023-05-22T20:05:16.390Z,79.2520
2023-05-22T20:06:17.680Z,79.9886
2023-05-22T20:07:18.814Z,81.4999
2023-05-22T20:08:19.149Z,82.5182
2023-05-22T20:09:19.975Z,83.4962
2023-05-22T20:10:20.535Z,84.0942
2023-05-22T20:11:20.661Z,81.9378
2023-05-22T20:12:21.426Z,80.5448
2023-05-22T20:15:25.852Z,81.2663
2023-05-22T20:16:29.419Z,80.7557
2023-05-22T20:19:35.918Z,80.9808
2023-05-22T20:20:33.529Z,81.5974
2023-05-22T20:26:43.364Z,81.7458
2023-05-22T20:27:43.831Z,81.0150
2023-05-22T20:30:47.203Z,82.6859
2023-05-22T20:31:47.735Z,81.9946
2023-05-22T20:33:50.382Z,80.5777
2023-05-22T20:34:53.961Z,80.8698
2023-05-22T20:42:00.528Z,81.0443
2023-05-22T20:43:00.671Z,81.6239
2023-05-22T20:44:01.061Z,81.7399
2023-05-22T20:45:01.127Z,81.5680
2023-05-22T20:46:01.973Z,81.6577
2023-05-22T20:47:02.728Z,79.8316
2023-05-22T20:48:02.979Z,79.9921
2023-05-22T20:49:03.766Z,82.0191
2023-05-22T20:50:04.274Z,82.2736
2023-05-22T20:51:04.402Z,82.3363
2023-05-22T20:52:05.176Z,81.4515
2023-05-22T20:53:06.507Z,83.8055
2023-05-22T20:55:07.069Z,82.4314
2023-05-22T21:10:32.008Z,87.2332
2023-05-22T21:11:32.753Z,87.7150
2023-05-22T21:12:33.499Z,88.3644
2023-05-22T21:16:40.656Z,88.6144
2023-05-22T21:17:41.712Z,88.1970
2023-05-22T21:18:41.838Z,86.5594
2023-05-22T21:19:41.843Z,86.9319
2023-05-22T21:20:41.919Z,87.8603
2023-05-22T21:21:42.867Z,88.0497
2023-05-22T21:25:46.227Z,86.0162
2023-05-22T21:36:04.138Z,87.6613
2023-05-22T21:37:04.917Z,88.7528
2023-05-22T21:38:05.293Z,89.1551
2023-05-22T21:39:06.029Z,89.6132
2023-05-22T21:40:06.909Z,89.5890
2023-05-22T21:43:13.131Z,87.8652
2023-05-22T21:44:13.671Z,87.8157
2023-05-22T21:49:21.289Z,86.3270
2023-05-22T21:50:22.199Z,86.2640
2023-05-22T21:51:22.329Z,86.0220
2023-05-22T21:52:23.456Z,86.1437
2023-05-22T21:53:23.962Z,86.4289
2023-05-22T21:54:24.145Z,86.8385
2023-05-22T21:55:24.725Z,86.5390
2023-05-22T21:56:25.121Z,86.5815
2023-05-22T21:58:28.284Z,87.4623
2023-05-22T21:59:28.882Z,87.5272
2023-05-22T22:00:28.809Z,86.9374
2023-05-22T22:01:29.840Z,86.6045
2023-05-22T22:02:30.606Z,86.0613
2023-05-22T22:03:30.895Z,85.4688
2023-05-22T22:04:31.144Z,85.3598
2023-05-22T22:05:31.155Z,84.9567
2023-05-22T22:06:31.946Z,84.9593
2023-05-22T22:07:31.964Z,85.0620
2023-05-22T22:08:32.663Z,84.7079
2023-05-22T22:09:32.825Z,84.7630
2023-05-22T22:10:33.470Z,84.9620
2023-05-22T22:11:33.707Z,84.7670
2023-05-22T22:12:34.331Z,85.1100
2023-05-22T22:13:35.570Z,85.1749
2023-05-22T22:14:35.812Z,85.8802
2023-05-22T22:15:36.398Z,86.4189
2023-05-22T22:16:37.287Z,86.0158
2023-05-22T22:17:38.038Z,85.7092
2023-05-22T22:18:38.242Z,86.2665
2023-05-22T22:19:38.474Z,86.6535
2023-05-22T22:23:42.219Z,86.3478
2023-05-22T22:24:42.237Z,86.9473
2023-05-22T22:25:42.466Z,87.2467
2023-05-22T22:26:42.470Z,87.6651
2023-05-22T22:27:42.966Z,87.9490
2023-05-22T22:28:43.760Z,88.1325
2023-05-22T22:29:44.507Z,87.9852
2023-05-22T22:30:45.165Z,88.1003
2023-05-22T22:34:49.136Z,87.9200
2023-05-22T22:37:53.144Z,90.4024
2023-05-22T22:40:56.734Z,91.2277
2023-05-22T22:41:56.728Z,90.5528
2023-05-22T22:47:05.965Z,88.5713
2023-05-22T22:48:07.401Z,88.5261
2023-05-22T22:49:08.531Z,88.3663
2023-05-22T22:54:18.708Z,89.0559
2023-05-22T22:55:18.848Z,89.3159
2023-05-22T22:56:19.779Z,89.3442
2023-05-22T22:57:20.607Z,90.0848
2023-05-22T22:58:20.655Z,90.8636
2023-05-22T22:59:20.672Z,90.0883
2023-05-22T23:00:20.743Z,89.9370
2023-05-22T23:01:20.816Z,90.1590
2023-05-22T23:02:21.857Z,90.6718
2023-05-22T23:03:22.599Z,91.4398
2023-05-22T23:04:22.851Z,92.1734
2023-05-22T23:05:23.757Z,92.1236
2023-05-22T23:06:23.760Z,92.6121
2023-05-22T23:07:23.757Z,92.6181
2023-05-22T23:08:23.850Z,92.9532
2023-05-22T23:09:23.878Z,92.8045
2023-05-22T23:11:25.521Z,92.5947
2023-05-22T23:12:25.544Z,92.9073
2023-05-22T23:13:26.639Z,93.5300
2023-05-22T23:14:28.202Z,93.9557
2023-05-22T23:15:28.196Z,94.2837
2023-05-22T23:16:29.213Z,94.6703
2023-05-22T23:17:30.155Z,94.5911
2023-05-22T23:18:30.193Z,94.1431
2023-05-22T23:19:30.969Z,93.5457
2023-05-22T23:20:31.015Z,93.2818
2023-05-22T23:21:31.869Z,93.3213
2023-05-22T23:22:31.924Z,93.3619
2023-05-22T23:23:32.689Z,93.0923
2023-05-22T23:24:33.594Z,93.3103
2023-05-22T23:25:33.654Z,94.0790
2023-05-22T23:26:34.184Z,93.7888
2023-05-22T23:27:34.222Z,93.1285
2023-05-22T23:28:34.295Z,93.1370
2023-05-22T23:29:35.151Z,94.0562
2023-05-22T23:30:35.219Z,94.7993
2023-05-22T23:31:35.298Z,95.0827
2023-05-22T23:32:35.399Z,94.6229
2023-05-22T23:33:35.416Z,94.0737
2023-05-22T23:34:35.613Z,93.9001
2023-05-22T23:35:35.716Z,93.8007
2023-05-22T23:36:36.550Z,94.1000
2023-05-22T23:37:36.611Z,94.1479
2023-05-22T23:38:36.672Z,94.3984
2023-05-22T23:39:36.764Z,94.0806
2023-05-22T23:40:36.793Z,93.8058
2023-05-22T23:41:36.803Z,93.1558
2023-05-22T23:42:40.327Z,93.0333
2023-05-22T23:43:40.980Z,92.6347
2023-05-22T23:44:41.035Z,92.3005
2023-05-22T23:45:41.955Z,92.0309
2023-05-22T23:46:42.128Z,91.6716
2023-05-22T23:47:43.327Z,91.6458
2023-05-22T23:48:43.374Z,91.6577
2023-05-22T23:49:44.116Z,91.3159
2023-05-22T23:50:44.905Z,91.4524
2023-05-22T23:51:44.981Z,90.6154
2023-05-22T23:52:45.675Z,90.2680
2023-05-22T23:53:45.725Z,89.5626
2023-05-22T23:54:46.560Z,88.8922
2023-05-22T23:55:46.610Z,88.7163
2023-05-22T23:56:46.673Z,88.2235
2023-05-22T23:57:46.762Z,88.2769
2023-05-22T23:58:46.821Z,87.6252
2023-05-22T23:59:47.694Z,88.0268
